Time;durP1;ratioP1;P1;durP2;ratioP2;P2;SDS_P1;SDS_P2;PMS_P1;PMS_P2;Temp;Humidity;BMP_temperature;BMP_pressure;BME280_temperature;BME280_humidity;BME280_pressure;Samples;Min_cycle;Max_cycle;Signal;HPM_P1;HPM_P2
2022/03/19 00:03:01;;;;;;;42.23;16.93;;;;;;;-2.25;57.57;101424.14;1687199;82;21238;-82
2022/03/19 00:05:28;;;;;;;40.80;15.72;;;;;;;-2.20;58.23;101423.16;1714716;83;21038;-82
2022/03/19 00:07:56;;;;;;;32.63;13.60;;;;;;;-2.16;57.57;101426.38;1698763;83;21007;-83
2022/03/19 00:10:22;;;;;;;35.05;12.98;;;;;;;-2.16;56.88;101430.20;1698999;83;21027;-83
2022/03/19 00:12:49;;;;;;;29.90;12.37;;;;;;;-2.17;57.26;101424.61;1695279;82;21090;-81
2022/03/19 00:15:16;;;;;;;27.60;11.00;;;;;;;-2.14;57.29;101432.45;1671397;83;21045;-81
2022/03/19 00:17:54;;;;;;;29.75;10.90;;;;;;;-2.15;56.45;101432.35;1712581;79;21101;31
2022/03/19 00:20:21;;;;;;;29.82;11.55;;;;;;;-2.16;59.26;101431.88;1701341;79;21666;-82
2022/03/19 00:22:48;;;;;;;36.58;11.48;;;;;;;-2.15;58.05;101429.80;1784474;79;20948;-81
2022/03/19 00:25:14;;;;;;;28.12;11.57;;;;;;;-2.17;58.75;101422.45;1789953;80;20996;-82
2022/03/19 00:27:41;;;;;;;35.17;12.18;;;;;;;-2.17;57.58;101423.73;1764042;80;20989;-81
2022/03/19 00:30:09;;;;;;;23.57;11.55;;;;;;;-2.18;57.70;101424.13;1758173;81;21045;-82
2022/03/19 00:32:36;;;;;;;32.88;13.40;;;;;;;-2.22;57.60;101420.50;1720806;83;21025;-83
2022/03/19 00:35:05;;;;;;;28.73;11.65;;;;;;;-2.26;58.02;101418.55;1720574;83;21026;-83
2022/03/19 00:37:32;;;;;;;26.00;11.97;;;;;;;-2.28;57.81;101417.56;1723513;83;21055;-82
2022/03/19 00:39:59;;;;;;;23.18;10.98;;;;;;;-2.28;58.55;101421.78;1731999;82;21007;-83
2022/03/19 00:42:26;;;;;;;26.70;10.90;;;;;;;-2.29;58.27;101420.91;1732950;81;20984;-82
2022/03/19 00:44:52;;;;;;;32.08;11.88;;;;;;;-2.29;58.85;101416.19;1737204;80;21081;-83
2022/03/19 00:47:19;;;;;;;34.43;12.45;;;;;;;-2.34;58.70;101418.45;1736237;80;21070;-83
2022/03/19 00:49:45;;;;;;;29.82;11.10;;;;;;;-2.36;59.41;101413.65;1754240;80;21113;-82
2022/03/19 00:52:13;;;;;;;27.67;11.70;;;;;;;-2.37;59.96;101413.55;1754613;82;21074;-81
2022/03/19 00:54:39;;;;;;;34.48;12.85;;;;;;;-2.39;59.69;101414.71;1722207;81;21033;-82
2022/03/19 00:57:06;;;;;;;27.98;12.20;;;;;;;-2.41;60.83;101415.00;1731734;82;21025;-82
2022/03/19 00:59:32;;;;;;;31.52;11.93;;;;;;;-2.43;58.80;101416.58;1731362;82;21088;-83
2022/03/19 01:01:59;;;;;;;35.10;12.13;;;;;;;-2.46;58.66;101411.30;1730227;82;20978;-82
2022/03/19 01:04:26;;;;;;;34.43;12.93;;;;;;;-2.51;59.96;101409.70;1730148;81;21047;-83
2022/03/19 01:06:53;;;;;;;32.90;12.95;;;;;;;-2.53;60.79;101412.95;1691864;81;21073;-81
2022/03/19 01:09:23;;;;;;;41.40;12.37;;;;;;;-2.55;59.00;101414.11;1692541;81;21119;31
2022/03/19 01:11:52;;;;;;;29.42;11.08;;;;;;;-2.74;59.62;101385.72;1692637;82;20968;-81
2022/03/19 01:14:19;;;;;;;23.90;11.30;;;;;;;-2.58;59.13;101420.30;1689551;84;21068;-82
2022/03/19 01:16:45;;;;;;;32.90;12.03;;;;;;;-2.60;60.07;101420.59;1701009;83;21019;-81
2022/03/19 01:19:12;;;;;;;27.30;10.58;;;;;;;-2.58;59.67;101413.06;1710895;83;21056;-82
2022/03/19 01:21:39;;;;;;;29.07;11.12;;;;;;;-2.60;59.59;101413.83;1688281;85;21140;-82
2022/03/19 01:24:07;;;;;;;27.60;11.90;;;;;;;-2.62;59.80;101414.12;1669249;85;21091;-80
2022/03/19 01:26:33;;;;;;;32.35;12.40;;;;;;;-2.65;60.07;101411.36;1734847;81;21031;-81
2022/03/19 01:29:00;;;;;;;25.50;11.68;;;;;;;-2.69;59.78;101417.03;1731969;82;20992;-79
2022/03/19 01:31:26;;;;;;;29.57;11.97;;;;;;;-2.69;58.33;101409.40;1735895;81;20950;-80
2022/03/19 01:33:53;;;;;;;31.82;11.63;;;;;;;-2.74;59.26;101411.18;1716365;83;21003;-80
2022/03/19 01:36:20;;;;;;;28.32;11.95;;;;;;;-2.75;58.76;101417.91;1716310;83;21000;-81
2022/03/19 01:38:47;;;;;;;28.35;11.88;;;;;;;-2.78;60.67;101416.45;1717090;83;21083;-82
2022/03/19 01:41:14;;;;;;;30.52;11.57;;;;;;;-2.77;59.16;101413.52;1687823;84;20997;-81
2022/03/19 01:43:41;;;;;;;25.90;11.33;;;;;;;-2.77;59.36;101414.78;1687768;85;21047;-81
2022/03/19 01:46:07;;;;;;;27.58;11.63;;;;;;;-2.77;59.78;101418.20;1666116;85;21010;-82
2022/03/19 01:48:34;;;;;;;29.12;13.08;;;;;;;-2.79;59.08;101412.13;1663642;84;21051;-82
2022/03/19 01:51:01;;;;;;;34.70;13.22;;;;;;;-2.77;59.43;101413.52;1662453;85;21077;-82
2022/03/19 01:53:28;;;;;;;28.15;11.18;;;;;;;-2.81;60.42;101410.75;1687230;83;21003;-82
2022/03/19 01:55:56;;;;;;;27.65;10.63;;;;;;;-2.81;58.46;101413.69;1686827;85;21090;-82
2022/03/19 01:58:23;;;;;;;27.15;10.65;;;;;;;-2.84;59.27;101411.84;1657669;85;21018;-81
2022/03/19 02:00:50;;;;;;;21.62;10.75;;;;;;;-2.85;58.89;101411.73;1680948;83;21016;-81
2022/03/19 02:03:17;;;;;;;30.25;10.85;;;;;;;-2.86;58.28;101415.95;1653314;85;21011;-81
2022/03/19 02:05:47;;;;;;;29.00;10.78;;;;;;;-2.88;59.70;101414.96;1703802;83;20937;-82
2022/03/19 02:08:13;;;;;;;23.38;10.50;;;;;;;-2.87;58.90;101410.75;1708084;83;21047;-82
2022/03/19 02:10:40;;;;;;;23.18;10.55;;;;;;;-2.87;59.23;101420.93;1722864;82;21074;-83
2022/03/19 02:13:07;;;;;;;33.30;12.20;;;;;;;-2.86;58.24;101426.13;1757001;81;21039;-81
2022/03/19 02:15:33;;;;;;;28.75;10.18;;;;;;;-2.86;59.19;101429.07;1704927;83;21068;-82
2022/03/19 02:18:00;;;;;;;20.97;10.68;;;;;;;-2.83;57.73;101422.89;1702554;83;21472;-81
2022/03/19 02:20:34;;;;;;;23.22;9.80;;;;;;;-2.85;59.31;101422.78;1699835;83;21040;-82
2022/03/19 02:25:49;;;;;;;26.17;10.50;;;;;;;-2.85;57.73;101427.88;1674903;83;20995;-82
2022/03/19 02:28:16;;;;;;;25.10;9.58;;;;;;;-2.85;58.68;101427.00;1673584;86;20956;-82
2022/03/19 02:30:44;;;;;;;22.65;9.38;;;;;;;-2.84;57.76;101424.56;1701858;84;21043;-82
2022/03/19 02:33:12;;;;;;;19.37;9.80;;;;;;;-2.84;58.35;101430.05;1662363;86;21051;-83
2022/03/19 02:35:39;;;;;;;29.02;10.40;;;;;;;-2.89;57.98;101432.67;1643079;87;21012;-82
2022/03/19 02:38:08;;;;;;;37.75;9.60;;;;;;;-2.92;58.54;101429.94;1702636;83;21606;-83
2022/03/19 02:40:34;;;;;;;23.57;10.38;;;;;;;-2.96;58.49;101433.03;1695287;84;21070;-82
2022/03/19 02:43:01;;;;;;;25.02;8.35;;;;;;;-2.98;57.82;101430.41;1701483;84;21027;-82
2022/03/19 02:45:28;;;;;;;23.50;9.30;;;;;;;-3.02;58.27;101433.13;1702785;83;21035;-81
2022/03/19 02:47:57;;;;;;;28.62;11.25;;;;;;;-2.99;57.66;101433.72;1692577;84;21035;-83
2022/03/19 02:50:31;;;;;;;17.48;8.30;;;;;;;-3.02;57.89;101441.17;1697645;83;20995;-80
2022/03/19 02:53:01;;;;;;;21.00;9.60;;;;;;;-3.11;59.15;101431.63;1731565;82;21050;-81
2022/03/19 02:55:33;;;;;;;22.75;9.08;;;;;;;-3.13;58.29;101435.34;1734121;82;20983;-80
2022/03/19 02:58:01;;;;;;;23.22;9.43;;;;;;;-3.14;59.11;101433.95;1702814;84;20973;-80
2022/03/19 03:00:29;;;;;;;20.10;8.58;;;;;;;-3.16;59.37;101436.42;1705024;83;21055;-79
2022/03/19 03:02:56;;;;;;;21.12;10.00;;;;;;;-3.13;58.86;101437.88;1746577;82;21006;-80
2022/03/19 03:05:22;;;;;;;27.95;9.35;;;;;;;-3.19;60.32;101434.92;1751496;82;21019;-80
2022/03/19 03:07:49;;;;;;;24.30;9.88;;;;;;;-3.18;58.90;101435.80;1735754;82;20965;-80
2022/03/19 03:10:17;;;;;;;21.57;9.98;;;;;;;-3.22;59.64;101438.16;1730409;81;21068;-80
2022/03/19 03:12:44;;;;;;;31.30;10.48;;;;;;;-3.30;60.38;101435.48;1713479;83;21006;-80
2022/03/19 03:15:10;;;;;;;24.35;9.45;;;;;;;-3.35;61.63;101435.94;1701753;84;21078;-82
2022/03/19 03:17:38;;;;;;;32.42;9.90;;;;;;;-3.39;61.85;101436.11;1677065;84;21423;-80
2022/03/19 03:20:07;;;;;;;28.75;11.08;;;;;;;-3.40;61.69;101435.64;1701067;84;21025;-81
2022/03/19 03:22:37;;;;;;;23.35;10.70;;;;;;;-3.38;59.88;101435.72;1679520;84;21043;-80
2022/03/19 03:25:04;;;;;;;23.70;9.53;;;;;;;-3.39;59.41;101438.66;1672172;84;21090;-80
2022/03/19 03:27:32;;;;;;;25.50;10.48;;;;;;;-3.39;61.85;101434.84;1695381;84;20988;-80
2022/03/19 03:29:58;;;;;;;24.95;11.28;;;;;;;-3.39;62.09;101437.39;1681378;84;20976;-81
2022/03/19 03:32:25;;;;;;;25.12;11.48;;;;;;;-3.37;61.14;101440.92;1686440;84;21024;-80
2022/03/19 03:34:51;;;;;;;22.80;10.40;;;;;;;-3.34;59.81;101432.60;1706222;84;21378;-81
2022/03/19 03:37:18;;;;;;;24.80;9.78;;;;;;;-3.36;60.35;101431.62;1681500;84;20968;-82
2022/03/19 03:39:45;;;;;;;39.73;14.53;;;;;;;-3.35;61.20;101431.73;1697958;85;21033;-80
2022/03/19 03:42:12;;;;;;;24.67;10.45;;;;;;;-3.36;60.95;101430.34;1709550;84;21019;-80
2022/03/19 03:44:41;;;;;;;23.38;9.63;;;;;;;-3.41;59.38;101432.59;1712565;84;20952;-81
2022/03/19 03:47:08;;;;;;;30.82;13.55;;;;;;;-3.45;58.76;101430.22;1712770;83;21047;-82
2022/03/19 03:49:34;;;;;;;26.73;10.90;;;;;;;-3.52;59.80;101434.41;1701083;84;21034;-81
2022/03/19 03:52:01;;;;;;;31.05;10.90;;;;;;;-3.52;59.16;101427.14;1697903;84;20997;-81
2022/03/19 03:54:28;;;;;;;23.12;10.38;;;;;;;-3.52;59.59;101436.95;1705490;84;21046;-80
2022/03/19 03:56:55;;;;;;;23.70;10.32;;;;;;;-3.62;59.92;101429.07;1688205;82;21064;-81
2022/03/19 03:59:23;;;;;;;25.40;9.73;;;;;;;-3.63;60.65;101431.11;1689359;82;21571;-83
2022/03/19 04:01:49;;;;;;;26.50;10.70;;;;;;;-3.62;59.60;101431.98;1738000;81;21007;-81
2022/03/19 04:04:16;;;;;;;25.95;10.13;;;;;;;-3.61;60.50;101439.72;1763096;81;20968;-82
2022/03/19 04:06:43;;;;;;;21.25;9.60;;;;;;;-3.62;60.12;101437.97;1731023;81;21026;-82
2022/03/19 04:09:10;;;;;;;40.30;11.20;;;;;;;-3.61;61.19;101445.20;1741107;81;21065;-81
2022/03/19 04:11:36;;;;;;;29.42;10.20;;;;;;;-3.66;60.23;101449.06;1740264;81;21024;-81
2022/03/19 04:14:03;;;;;;;27.62;10.58;;;;;;;-3.70;61.12;101448.36;1721459;82;20932;-82
2022/03/19 04:16:31;;;;;;;22.80;8.90;;;;;;;-3.73;61.68;101451.58;1701870;83;21031;-82
2022/03/19 04:18:57;;;;;;;20.90;9.00;;;;;;;-3.76;60.96;101455.20;1722286;83;21102;-82
2022/03/19 04:21:24;;;;;;;32.42;11.00;;;;;;;-3.82;60.44;101455.64;1725104;83;21019;-81
2022/03/19 04:23:51;;;;;;;21.87;9.40;;;;;;;-3.85;62.67;101457.95;1714888;83;20988;-82
2022/03/19 04:26:18;;;;;;;30.88;9.23;;;;;;;-3.86;61.67;101461.29;1700250;83;21008;-82
2022/03/19 04:28:44;;;;;;;25.60;9.73;;;;;;;-3.85;61.39;101463.04;1713082;83;21022;-81
2022/03/19 04:31:11;;;;;;;24.47;8.70;;;;;;;-3.80;61.17;101466.80;1715628;83;20968;-81
2022/03/19 04:33:37;;;;;;;27.62;9.13;;;;;;;-3.76;61.88;101470.45;1703343;83;21445;-81
2022/03/19 04:38:49;;;;;;;16.12;8.30;;;;;;;-3.74;60.29;101467.99;1711477;83;21008;-81
2022/03/19 04:41:16;;;;;;;22.10;9.00;;;;;;;-3.74;59.62;101471.80;1708879;83;21038;-82
2022/03/19 04:43:43;;;;;;;22.25;8.78;;;;;;;-3.72;59.67;101477.52;1715646;83;20976;-82
2022/03/19 04:46:10;;;;;;;26.73;8.43;;;;;;;-3.69;60.22;101478.11;1717856;83;21013;-81
2022/03/19 04:48:36;;;;;;;39.30;11.75;;;;;;;-3.69;60.88;101476.84;1710908;83;20981;-81
2022/03/19 04:51:03;;;;;;;49.67;15.35;;;;;;;-3.65;60.12;101477.16;1705090;83;21023;-82
2022/03/19 04:53:30;;;;;;;48.98;16.45;;;;;;;-3.62;59.42;101482.83;1708754;83;20940;-81
2022/03/19 04:55:57;;;;;;;33.02;13.68;;;;;;;-3.62;60.53;101479.02;1722195;83;21054;-82
2022/03/19 04:58:23;;;;;;;31.73;12.88;;;;;;;-3.61;60.84;101478.26;1726258;83;21024;-82
2022/03/19 05:00:50;;;;;;;31.17;11.25;;;;;;;-3.60;61.07;101479.64;1726849;83;21023;-82
2022/03/19 05:03:17;;;;;;;32.50;12.10;;;;;;;-3.61;61.17;101479.53;1718809;83;21015;-82
2022/03/19 05:05:43;;;;;;;36.70;12.63;;;;;;;-3.58;60.92;101483.94;1728442;83;21011;-82
2022/03/19 05:08:10;;;;;;;30.40;10.58;;;;;;;-3.57;61.46;101486.98;1724095;83;21031;-83
2022/03/19 05:13:22;;;;;;;37.08;11.05;;;;;;;-3.52;59.83;101486.53;1727286;83;21011;-82
2022/03/19 05:15:49;;;;;;;33.00;10.80;;;;;;;-3.49;59.98;101496.03;1729241;83;20967;-82
2022/03/19 05:18:15;;;;;;;26.73;11.08;;;;;;;-3.44;60.09;101493.44;1712986;83;21028;-83
2022/03/19 05:20:42;;;;;;;30.05;11.28;;;;;;;-3.40;60.67;101492.47;1698073;84;21023;-82
2022/03/19 05:23:09;;;;;;;31.57;11.68;;;;;;;-3.34;60.73;101489.84;1698199;84;21086;-82
2022/03/19 05:25:35;;;;;;;27.85;11.65;;;;;;;-3.30;60.86;101491.81;1697752;84;20976;-82
2022/03/19 05:28:03;;;;;;;26.97;10.00;;;;;;;-3.28;60.36;101492.84;1706909;80;21012;-81
2022/03/19 05:30:31;;;;;;;25.75;10.32;;;;;;;-3.28;60.93;101494.11;1698997;84;21027;-83
2022/03/19 05:32:58;;;;;;;24.25;11.22;;;;;;;-3.24;60.48;101489.33;1705202;84;20967;-83
2022/03/19 05:35:26;;;;;;;29.30;11.35;;;;;;;-3.17;61.44;101488.08;1715071;84;20995;-82
2022/03/19 05:37:52;;;;;;;28.57;11.95;;;;;;;-3.12;60.32;101495.64;1709840;83;21035;-82
2022/03/19 05:40:19;;;;;;;26.25;11.25;;;;;;;-3.09;60.60;101492.02;1718211;83;20976;-81
2022/03/19 05:42:46;;;;;;;32.10;10.65;;;;;;;-3.06;61.25;101500.28;1696452;85;21026;-82
2022/03/19 05:45:15;;;;;;;26.17;11.75;;;;;;;-3.07;61.23;101494.28;1696664;85;21000;-82
2022/03/19 05:47:44;;;;;;;30.68;11.73;;;;;;;-3.03;61.20;101500.07;1696529;85;21002;-81
2022/03/19 05:50:11;;;;;;;31.10;10.88;;;;;;;-2.98;60.49;101496.95;1714168;83;20947;-83
2022/03/19 05:52:39;;;;;;;30.08;11.38;;;;;;;-2.95;60.58;101498.45;1718212;80;21150;-83
2022/03/19 05:55:08;;;;;;;38.50;11.50;;;;;;;-2.89;59.96;101505.22;1686420;83;21523;-81
2022/03/19 05:57:35;;;;;;;27.65;12.28;;;;;;;-2.85;60.02;101497.89;1724657;83;20953;-80
2022/03/19 06:00:03;;;;;;;36.60;11.50;;;;;;;-2.76;59.92;101503.12;1718322;83;20957;-82
2022/03/19 06:02:32;;;;;;;29.65;12.20;;;;;;;-2.68;59.88;101499.43;1696032;84;21263;-83
2022/03/19 06:04:59;;;;;;;26.25;11.63;;;;;;;-2.63;59.70;101501.87;1709753;81;20968;-82
2022/03/19 06:07:25;;;;;;;27.90;10.48;;;;;;;-2.58;59.90;101506.02;1696791;85;21013;-80
2022/03/19 06:09:54;;;;;;;27.73;12.73;;;;;;;-2.54;60.15;101509.27;1701840;83;21103;-80
2022/03/19 06:12:21;;;;;;;34.55;13.58;;;;;;;-2.49;60.72;101512.98;1713801;82;20957;-81
2022/03/19 06:14:53;;;;;;;32.75;12.20;;;;;;;-2.44;59.87;101508.69;1697867;83;21010;-81
2022/03/19 06:17:17;;;;;;;31.12;10.48;;;;;;;-2.36;60.90;101514.28;1707863;83;21021;-81
2022/03/19 06:19:43;;;;;;;26.87;12.30;;;;;;;-2.31;59.71;101523.09;1719330;83;21027;-82
2022/03/19 06:22:10;;;;;;;28.80;12.05;;;;;;;-2.25;60.27;101513.34;1692716;83;21021;-82
2022/03/19 06:24:37;;;;;;;38.90;14.30;;;;;;;-2.20;60.07;101513.62;1691370;83;20962;-82
2022/03/19 06:27:04;;;;;;;45.55;15.23;;;;;;;-2.12;59.75;101515.00;1692631;82;20947;-82
2022/03/19 06:29:31;;;;;;;39.20;16.62;;;;;;;-2.03;59.80;101519.43;1693037;82;21047;-81
2022/03/19 06:31:58;;;;;;;31.60;13.35;;;;;;;-1.91;59.56;101512.96;1693059;83;21050;-82
2022/03/19 06:34:25;;;;;;;34.45;11.93;;;;;;;-1.80;59.86;101518.33;1693071;83;21023;-82
2022/03/19 06:39:36;;;;;;;33.40;12.90;;;;;;;-1.59;59.04;101519.22;1693160;83;21009;-82
2022/03/19 06:42:03;;;;;;;33.83;11.70;;;;;;;-1.46;58.69;101508.97;1694698;81;21108;-80
2022/03/19 06:44:30;;;;;;;34.10;13.58;;;;;;;-1.38;58.40;101513.67;1677557;83;21017;-80
2022/03/19 06:46:56;;;;;;;30.40;12.58;;;;;;;-1.31;58.72;101518.38;1672604;83;21248;-80
2022/03/19 06:49:24;;;;;;;25.10;9.23;;;;;;;-1.25;57.29;101517.48;1673450;83;21033;-81
2022/03/19 06:51:51;;;;;;;22.50;9.85;;;;;;;-1.13;57.14;101516.95;1678866;84;21048;-80
2022/03/19 06:54:18;;;;;;;25.62;10.28;;;;;;;-1.07;56.65;101513.89;1668231;84;21009;-81
2022/03/19 06:56:44;;;;;;;23.20;10.23;;;;;;;-1.03;56.58;101520.54;1676037;84;21041;-81
2022/03/19 06:59:11;;;;;;;26.50;10.58;;;;;;;-0.97;55.60;101519.16;1678198;84;21089;-81
2022/03/19 07:01:37;;;;;;;34.08;11.40;;;;;;;-0.89;55.51;101516.67;1685475;84;21321;-81
2022/03/19 07:04:04;;;;;;;22.65;10.03;;;;;;;-0.80;55.34;101518.47;1683488;83;21009;-80
2022/03/19 07:06:31;;;;;;;24.27;10.00;;;;;;;-0.71;55.26;101524.14;1663670;83;21071;-76
2022/03/19 07:08:58;;;;;;;26.62;10.32;;;;;;;-0.62;55.28;101522.52;1650056;86;21046;-82
2022/03/19 07:11:25;;;;;;;28.45;10.80;;;;;;;-0.52;54.76;101523.94;1667578;83;20992;-81
2022/03/19 07:13:51;;;;;;;29.45;10.68;;;;;;;-0.42;54.30;101526.23;1668111;83;21021;-81
2022/03/19 07:16:18;;;;;;;29.15;11.73;;;;;;;-0.33;54.04;101526.77;1662420;86;21065;-81
2022/03/19 07:18:44;;;;;;;20.90;9.03;;;;;;;-0.21;53.49;101523.64;1668238;80;21067;-82
2022/03/19 07:23:51;;;;;;;22.42;8.50;;;;;;;0.01;53.16;101524.87;1729901;79;21113;-81
2022/03/19 07:26:18;;;;;;;21.70;9.38;;;;;;;0.14;51.95;101520.94;1723955;82;21027;-80
2022/03/19 07:28:44;;;;;;;23.73;8.25;;;;;;;0.25;51.81;101529.20;1724233;82;21267;-79
2022/03/19 07:31:11;;;;;;;22.90;8.75;;;;;;;0.27;50.30;101531.84;1711168;82;21019;-80
2022/03/19 07:33:37;;;;;;;30.00;8.48;;;;;;;0.34;50.90;101528.84;1717212;83;21007;-80
2022/03/19 07:36:05;;;;;;;24.25;10.08;;;;;;;0.34;49.34;101530.99;1724168;83;21057;-80
2022/03/19 07:38:32;;;;;;;20.12;8.00;;;;;;;0.43;49.46;101529.33;1724118;83;20995;-80
2022/03/19 07:43:39;;;;;;;20.50;8.75;;;;;;;0.64;49.48;101517.20;1606494;86;21047;-80
2022/03/19 07:46:06;;;;;;;20.45;7.58;;;;;;;0.78;49.20;101518.84;1659201;84;21011;-79
2022/03/19 07:48:33;;;;;;;21.85;8.15;;;;;;;0.89;47.33;101523.24;1721747;82;21032;-83
2022/03/19 07:51:00;;;;;;;13.35;6.42;;;;;;;1.00;46.98;101517.02;1725827;81;20976;-81
2022/03/19 07:53:27;;;;;;;17.77;7.85;;;;;;;1.09;47.88;101507.23;1759762;80;21027;-82
2022/03/19 07:55:54;;;;;;;14.70;6.67;;;;;;;1.18;47.61;101510.28;1738175;82;21078;-81
2022/03/19 07:58:22;;;;;;;21.57;7.10;;;;;;;1.29;47.07;101508.25;1710144;78;21112;-83
2022/03/19 08:00:49;;;;;;;20.95;8.50;;;;;;;1.35;47.09;101507.31;1697366;81;20957;-82
2022/03/19 08:03:17;;;;;;;16.60;7.42;;;;;;;1.44;44.99;101512.02;1735097;82;21086;-80
2022/03/19 08:05:44;;;;;;;16.37;7.25;;;;;;;1.55;46.98;101513.81;1717809;83;21051;-80
2022/03/19 08:08:12;;;;;;;19.25;7.45;;;;;;;1.66;45.12;101508.84;1683461;84;21047;-79
2022/03/19 08:10:39;;;;;;;19.25;7.90;;;;;;;1.75;45.60;101510.96;1717960;81;21027;-84
2022/03/19 08:13:08;;;;;;;15.83;7.55;;;;;;;1.82;43.98;101505.75;1715852;80;23685;-79
2022/03/19 08:15:37;;;;;;;19.80;7.85;;;;;;;1.87;44.21;101506.46;1746287;81;20992;-82
2022/03/19 08:18:04;;;;;;;16.02;7.45;;;;;;;1.98;44.99;101505.27;1746484;81;21072;-83
2022/03/19 08:20:31;;;;;;;20.97;8.48;;;;;;;2.06;43.97;101510.78;1720857;80;21081;-82
2022/03/19 08:22:58;;;;;;;20.62;7.67;;;;;;;2.12;42.04;101502.50;1720783;78;21027;-80
2022/03/19 08:25:29;;;;;;;17.62;7.40;;;;;;;2.21;43.09;101508.46;1729123;80;21058;-81
2022/03/19 08:27:57;;;;;;;26.25;8.98;;;;;;;2.30;44.38;101505.05;1741920;78;21009;-81
2022/03/19 08:30:23;;;;;;;32.93;8.18;;;;;;;2.39;44.51;101500.36;1720944;80;21078;-79
2022/03/19 08:32:50;;;;;;;22.58;9.90;;;;;;;2.49;44.38;101499.98;1681539;82;21279;-81
2022/03/19 08:35:17;;;;;;;27.62;10.58;;;;;;;2.61;44.37;101500.05;1667158;84;21263;-81
2022/03/19 08:37:44;;;;;;;22.07;8.80;;;;;;;2.63;42.88;101503.18;1691435;83;21811;-80
2022/03/19 08:40:17;;;;;;;27.85;10.23;;;;;;;2.72;43.79;101501.42;1695227;83;21042;-82
2022/03/19 08:42:51;;;;;;;24.37;9.75;;;;;;;2.77;43.92;101493.53;1700947;84;21016;-83
2022/03/19 08:45:15;;;;;;;19.87;8.60;;;;;;;2.79;42.48;101491.91;1703170;84;21052;-83
2022/03/19 08:47:42;;;;;;;16.30;7.65;;;;;;;2.83;43.73;101492.52;1699052;84;21023;-83
2022/03/19 08:50:09;;;;;;;25.30;10.58;;;;;;;2.88;42.53;101484.59;1692496;84;21075;-83
2022/03/19 08:52:36;;;;;;;17.32;8.25;;;;;;;2.95;43.63;101476.77;1726705;82;21011;-83
2022/03/19 08:55:05;;;;;;;19.82;7.95;;;;;;;3.04;43.05;101477.56;1709467;84;21034;-83
2022/03/19 08:57:32;;;;;;;18.15;8.48;;;;;;;3.10;43.23;101470.98;1668102;86;21030;-83
2022/03/19 08:59:59;;;;;;;20.30;9.05;;;;;;;3.12;41.88;101470.67;1709350;83;21025;-82
2022/03/19 09:02:25;;;;;;;18.85;7.97;;;;;;;3.18;42.58;101466.18;1703764;84;21085;-83
2022/03/19 09:04:52;;;;;;;16.67;7.55;;;;;;;3.21;41.40;101467.61;1705259;83;21035;-83
2022/03/19 09:07:19;;;;;;;16.57;7.83;;;;;;;3.30;41.05;101460.30;1705404;80;21135;-83
2022/03/19 09:09:52;;;;;;;15.53;7.80;;;;;;;3.40;42.14;101458.97;1696598;80;21046;-83
2022/03/19 09:12:14;;;;;;;14.93;7.83;;;;;;;3.51;41.85;101457.73;1704124;81;20984;-83
2022/03/19 09:14:41;;;;;;;15.35;6.92;;;;;;;3.64;41.84;101450.52;1707394;83;21034;-83
2022/03/19 09:17:07;;;;;;;14.78;6.47;;;;;;;3.70;39.16;101454.23;1734423;83;20974;-83
2022/03/19 09:19:34;;;;;;;21.75;7.92;;;;;;;3.75;40.46;101445.41;1733902;83;21003;-83
2022/03/19 09:22:01;;;;;;;17.77;7.12;;;;;;;3.84;41.13;101442.30;1695995;82;20973;-83
2022/03/19 09:24:28;;;;;;;15.90;6.47;;;;;;;3.96;40.88;101441.11;1703672;84;21063;-83
2022/03/19 09:26:54;;;;;;;14.00;6.42;;;;;;;4.09;40.67;101441.17;1682676;83;21084;-83
2022/03/19 09:29:21;;;;;;;16.95;7.47;;;;;;;4.24;41.44;101438.33;1676841;84;21091;-82
2022/03/19 09:31:48;;;;;;;17.55;7.50;;;;;;;4.37;41.86;101438.36;1672535;86;21037;-82
2022/03/19 09:34:14;;;;;;;14.15;5.97;;;;;;;4.51;39.23;101438.46;1671495;86;21078;-83
2022/03/19 09:36:46;;;;;;;18.40;7.72;;;;;;;4.57;38.33;101428.80;1688991;85;20960;-82
2022/03/19 09:39:10;;;;;;;17.77;6.97;;;;;;;4.66;38.96;101432.14;1667640;83;21000;-83
2022/03/19 09:41:36;;;;;;;15.43;6.70;;;;;;;4.75;38.30;101435.03;1628414;86;21075;-82
2022/03/19 09:44:03;;;;;;;21.57;8.48;;;;;;;4.81;39.55;101430.09;1643037;86;21033;-83
2022/03/19 09:46:30;;;;;;;14.70;6.05;;;;;;;4.91;39.74;101423.14;1637746;86;20985;-83
2022/03/19 09:48:57;;;;;;;23.32;7.87;;;;;;;4.92;37.34;101428.78;1638199;86;20965;-83
2022/03/19 09:51:27;;;;;;;14.63;6.25;;;;;;;4.98;38.06;101430.28;1648020;86;21012;-82
2022/03/19 09:53:56;;;;;;;18.70;7.47;;;;;;;5.06;38.54;101424.11;1635200;87;21267;-84
2022/03/19 09:56:22;;;;;;;18.10;7.08;;;;;;;5.15;36.75;101420.95;1611156;89;21040;-83
2022/03/19 09:58:49;;;;;;;11.43;5.45;;;;;;;5.24;38.46;101421.70;1638811;85;20985;-82
2022/03/19 10:01:19;;;;;;;15.18;6.55;;;;;;;5.30;36.46;101424.06;1640303;87;21017;-82
2022/03/19 10:03:49;;;;;;;19.85;7.03;;;;;;;5.27;36.27;101422.69;1651652;85;20988;-83
2022/03/19 10:09:02;;;;;;;15.23;6.60;;;;;;;5.42;37.62;101424.02;1647445;86;20985;-83
2022/03/19 10:11:37;;;;;;;12.55;6.22;;;;;;;5.51;37.86;101430.75;1639288;86;21151;-82
2022/03/19 10:14:06;;;;;;;22.50;7.95;;;;;;;5.49;36.83;101424.66;1637240;87;21020;-83
2022/03/19 10:16:36;;;;;;;13.50;5.12;;;;;;;5.47;36.40;101425.03;1632910;87;21093;-82
2022/03/19 10:19:06;;;;;;;11.55;5.30;;;;;;;5.53;35.95;101418.78;1665814;85;21059;-82
2022/03/19 10:21:41;;;;;;;11.93;5.85;;;;;;;5.49;33.99;101408.80;1674461;86;21039;-82
2022/03/19 10:24:08;;;;;;;;;;;;;;;5.57;35.22;101406.44;1681290;85;20978;-83
2022/03/19 10:26:40;;;;;;;10.53;4.55;;;;;;;5.71;35.71;101410.36;1670617;83;20126;-82
2022/03/19 10:29:09;;;;;;;11.60;4.97;;;;;;;5.70;35.17;101401.27;1666573;86;21075;-82
2022/03/19 10:31:46;;;;;;;10.58;4.40;;;;;;;5.74;34.39;101405.28;1691065;82;21015;-83
2022/03/19 10:34:14;;;;;;;10.78;4.60;;;;;;;5.80;34.17;101405.89;1673358;85;21024;-83
2022/03/19 10:36:45;;;;;;;9.58;4.33;;;;;;;5.88;35.26;101405.71;1694892;85;21056;-82
2022/03/19 10:39:27;;;;;;;11.03;4.90;;;;;;;6.05;35.33;101398.53;1708644;82;21087;-83
2022/03/19 10:41:56;;;;;;;10.23;4.47;;;;;;;6.18;35.26;101398.47;1689958;84;21016;-87
2022/03/19 10:44:28;;;;;;;11.33;5.10;;;;;;;6.27;34.23;101396.17;1685590;85;21349;-82
2022/03/19 10:47:03;;;;;;;11.35;4.90;;;;;;;6.38;33.97;101390.00;1683564;85;21123;-82
2022/03/19 10:49:31;;;;;;;11.22;4.87;;;;;;;6.48;34.68;101385.55;1693844;85;21006;-81
2022/03/19 10:52:02;;;;;;;9.03;4.00;;;;;;;6.60;32.73;101384.16;1692773;85;21491;-82
2022/03/19 10:54:30;;;;;;;11.63;4.50;;;;;;;6.68;33.98;101383.95;1690646;82;21038;-81
2022/03/19 10:56:57;;;;;;;9.18;4.53;;;;;;;6.79;34.66;101382.54;1693779;85;21059;-82
2022/03/19 10:59:24;;;;;;;9.85;4.12;;;;;;;6.99;34.14;101374.02;1693796;84;20999;-82
2022/03/19 11:01:54;;;;;;;10.50;4.22;;;;;;;7.19;34.39;101377.11;1703073;82;21515;-83
2022/03/19 11:04:23;;;;;;;9.48;4.47;;;;;;;7.42;34.99;101372.91;1692427;85;21000;-82
2022/03/19 11:06:52;;;;;;;9.75;4.20;;;;;;;7.54;30.27;101370.21;1685364;84;21033;-82
2022/03/19 11:09:23;;;;;;;10.15;4.20;;;;;;;7.74;33.59;101366.80;1655830;87;20982;-82
2022/03/19 11:11:58;;;;;;;7.12;3.58;;;;;;;7.95;31.14;101364.22;1682536;85;20996;-83
2022/03/19 11:14:28;;;;;;;7.78;3.95;;;;;;;8.15;29.47;101362.92;1693605;85;21044;-82
2022/03/19 11:17:23;;;;;;;9.75;4.05;;;;;;;8.29;31.07;101363.64;1693234;84;21487;-82
2022/03/19 11:20:01;;;;;;;8.20;4.28;;;;;;;8.44;29.90;101357.51;1672178;85;20980;-82
2022/03/19 11:22:49;;;;;;;22.35;4.85;;;;;;;8.69;32.74;101349.76;1687868;85;21048;-82
2022/03/19 11:25:39;;;;;;;7.03;4.10;;;;;;;8.89;32.00;101346.27;1692845;85;21543;-82
2022/03/19 11:28:09;;;;;;;9.05;4.30;;;;;;;9.11;31.88;101340.12;1692624;85;21525;-83
2022/03/19 11:30:42;;;;;;;9.95;4.78;;;;;;;9.24;28.79;101336.02;1692412;83;21028;-82
2022/03/19 11:33:19;;;;;;;8.75;4.15;;;;;;;9.26;29.83;101325.23;1683385;84;21039;-80
2022/03/19 11:35:57;;;;;;;7.30;4.25;;;;;;;9.52;31.60;101329.09;1692296;85;21052;-82
2022/03/19 11:38:25;;;;;;;5.50;3.30;;;;;;;9.89;30.97;101327.47;1696369;84;21000;-82
2022/03/19 11:40:57;;;;;;;7.25;3.55;;;;;;;10.45;29.50;101318.21;1692159;84;21515;-83